createdAt,value
2023-04-16T00:00:20.149Z,100444.88
2023-04-16T00:05:20.318Z,100445.97
2023-04-16T00:10:19.342Z,100439.22
2023-04-16T00:15:18.139Z,100453.09
2023-04-16T00:20:17.017Z,100461.66
2023-04-16T00:25:17.405Z,100457.78
2023-04-16T00:30:16.486Z,100457.06
2023-04-16T00:35:15.539Z,100450.56
2023-04-16T00:40:14.375Z,100459.25
2023-04-16T00:45:14.872Z,100462.38
2023-04-16T00:50:13.933Z,100451.63
2023-04-16T00:55:13.699Z,100447.53
2023-04-16T01:00:15.538Z,100454.28
2023-04-16T01:05:14.474Z,100454.16
2023-04-16T01:10:13.315Z,100448.94
2023-04-16T01:15:12.854Z,100447.63
2023-04-16T01:20:13.198Z,100453.91
2023-04-16T01:25:17.075Z,100452.72
2023-04-16T01:30:16.608Z,100454.75
2023-04-16T01:35:25.932Z,100451.97
2023-04-16T01:40:26.276Z,100454.81
2023-04-16T01:45:25.563Z,100459.94
2023-04-16T01:50:25.010Z,100462.75
2023-04-16T01:55:25.354Z,100460.91
2023-04-16T02:00:24.164Z,100463.09
2023-04-16T02:05:24.930Z,100456.16
2023-04-16T02:10:25.927Z,100455.97
2023-04-16T02:15:25.491Z,100452.06
2023-04-16T02:20:24.666Z,100439.31
2023-04-16T02:25:29.044Z,100442.19
2023-04-16T02:30:29.740Z,100432.72
2023-04-16T02:35:29.058Z,100436.50
2023-04-16T02:40:29.355Z,100436.63
2023-04-16T02:45:28.322Z,100440.91
2023-04-16T02:50:27.259Z,100423.00
2023-04-16T02:55:26.228Z,100431.03
2023-04-16T03:00:26.779Z,100428.56
2023-04-16T03:05:25.826Z,100434.22
2023-04-16T03:10:25.237Z,100437.22
2023-04-16T03:15:24.262Z,100423.97
2023-04-16T03:20:24.597Z,100426.31
2023-04-16T03:25:24.961Z,100418.97
2023-04-16T03:30:24.007Z,100429.56
2023-04-16T03:35:24.240Z,100425.75
2023-04-16T03:40:23.123Z,100426.03
2023-04-16T03:45:22.953Z,100430.88
2023-04-16T03:50:24.799Z,100437.63
2023-04-16T03:55:23.753Z,100436.13
2023-04-16T04:00:22.908Z,100437.38
2023-04-16T04:05:38.982Z,100446.88
2023-04-16T04:10:40.440Z,100451.00
2023-04-16T04:15:41.707Z,100450.31
2023-04-16T04:20:42.617Z,100446.69
2023-04-16T04:25:41.865Z,100457.13
2023-04-16T04:30:40.824Z,100448.66
2023-04-16T04:35:39.826Z,100459.03
2023-04-16T04:40:42.207Z,100467.56
2023-04-16T04:45:41.764Z,100465.91
2023-04-16T04:50:41.084Z,100470.97
2023-04-16T04:55:42.179Z,100468.47
2023-04-16T05:00:42.805Z,100476.34
2023-04-16T05:05:42.082Z,100477.44
2023-04-16T05:10:42.320Z,100471.31
2023-04-16T05:15:41.577Z,100474.91
2023-04-16T05:20:40.288Z,100474.91
2023-04-16T05:25:39.183Z,100481.00
2023-04-16T05:30:39.445Z,100474.56
2023-04-16T05:35:38.455Z,100480.72
2023-04-16T05:40:37.554Z,100476.78
2023-04-16T05:45:41.048Z,100473.72
2023-04-16T05:50:41.411Z,100476.66
2023-04-16T05:55:40.287Z,100479.53
2023-04-16T06:00:39.269Z,100483.06
2023-04-16T06:05:38.209Z,100477.72
2023-04-16T06:10:38.468Z,100475.84
2023-04-16T06:15:37.446Z,100473.16
2023-04-16T06:20:36.447Z,100466.88
2023-04-16T06:25:35.455Z,100467.59
2023-04-16T06:30:35.892Z,100467.13
2023-04-16T06:35:34.908Z,100456.84
2023-04-16T06:40:33.697Z,100466.81
2023-04-16T06:45:32.494Z,100458.84
2023-04-16T06:50:32.773Z,100459.53
2023-04-16T06:55:31.713Z,100467.19
2023-04-16T07:00:30.641Z,100473.16
2023-04-16T07:05:29.480Z,100473.94
2023-04-16T07:10:30.082Z,100474.22
2023-04-16T07:15:30.747Z,100482.41
2023-04-16T07:20:29.803Z,100487.34
2023-04-16T07:25:30.130Z,100476.56
2023-04-16T07:30:34.235Z,100484.19
2023-04-16T07:35:33.597Z,100477.28
2023-04-16T07:40:34.472Z,100482.38
2023-04-16T07:45:33.362Z,100475.03
2023-04-16T07:50:32.296Z,100472.38
2023-04-16T07:55:31.238Z,100461.41
2023-04-16T08:00:31.579Z,100463.56
2023-04-16T08:05:30.609Z,100463.66
2023-04-16T08:10:29.722Z,100470.75
2023-04-16T08:15:28.678Z,100462.91
2023-04-16T08:20:31.197Z,100465.91
2023-04-16T08:25:30.049Z,100468.44
2023-04-16T08:30:29.109Z,100465.66
2023-04-16T08:35:29.347Z,100466.75
2023-04-16T08:40:30.770Z,100452.56
2023-04-16T08:45:29.515Z,100452.91
2023-04-16T08:50:31.594Z,100446.56
2023-04-16T08:55:33.881Z,100444.91
2023-04-16T09:00:34.713Z,100444.88
2023-04-16T09:05:35.132Z,100438.84
2023-04-16T09:10:34.650Z,100442.66
2023-04-16T09:15:35.322Z,100438.34
2023-04-16T09:20:36.184Z,100440.16
2023-04-16T09:25:35.845Z,100422.72
2023-04-16T09:30:34.983Z,100431.00
2023-04-16T09:35:48.676Z,100425.44
2023-04-16T09:40:48.639Z,100414.31
2023-04-16T09:45:51.907Z,100423.84
2023-04-16T09:50:53.436Z,100411.63
2023-04-16T09:55:52.185Z,100405.19
2023-04-16T10:00:51.290Z,100393.78
2023-04-16T10:05:50.091Z,100398.38
2023-04-16T10:10:50.567Z,100387.38
2023-04-16T10:15:49.873Z,100374.94
2023-04-16T10:20:49.218Z,100373.00
2023-04-16T10:25:51.291Z,100363.91
2023-04-16T10:30:53.781Z,100372.56
2023-04-16T10:36:05.056Z,100362.19
2023-04-16T10:41:08.720Z,100364.09
2023-04-16T10:46:22.504Z,100366.75
2023-04-16T10:51:32.608Z,100357.41
2023-04-16T10:56:34.317Z,100373.19
2023-04-16T11:01:34.241Z,100386.66
2023-04-16T11:06:33.183Z,100381.91
2023-04-16T11:11:39.728Z,100398.88
2023-04-16T11:16:42.012Z,100398.31
2023-04-16T11:21:40.797Z,100402.41
2023-04-16T11:26:41.062Z,100412.19
2023-04-16T11:31:40.307Z,100407.81
2023-04-16T11:36:45.117Z,100395.50
2023-04-16T11:41:46.084Z,100381.69
2023-04-16T11:46:45.251Z,100369.53
2023-04-16T11:51:45.150Z,100369.56
2023-04-16T11:56:48.239Z,100357.84
2023-04-16T12:01:49.722Z,100357.84
2023-04-16T12:07:11.128Z,100343.22
2023-04-16T12:12:31.401Z,100345.22
2023-04-16T12:17:31.328Z,100342.66
2023-04-16T12:22:31.302Z,100334.81
2023-04-16T12:27:49.533Z,100320.19
2023-04-16T12:32:51.889Z,100323.41
2023-04-16T12:37:51.106Z,100333.44
2023-04-16T12:42:51.452Z,100320.09
2023-04-16T12:47:50.868Z,100320.09
2023-04-16T12:52:51.002Z,100312.03
2023-04-16T12:57:53.041Z,100310.09
2023-04-16T13:02:52.066Z,100314.19
2023-04-16T13:07:51.003Z,100314.66
2023-04-16T13:12:51.239Z,100324.06
2023-04-16T13:17:50.112Z,100332.25
2023-04-16T13:22:48.952Z,100332.22
2023-04-16T13:27:47.868Z,100333.50
2023-04-16T13:32:48.104Z,100339.88
2023-04-16T13:37:46.982Z,100336.63
2023-04-16T13:42:45.900Z,100339.19
2023-04-16T13:47:44.916Z,100332.19
2023-04-16T13:52:45.142Z,100328.63
2023-04-16T13:57:43.951Z,100329.53
2023-04-16T14:02:46.067Z,100332.81
2023-04-16T14:07:46.470Z,100324.31
2023-04-16T14:12:45.378Z,100324.94
2023-04-16T14:17:44.694Z,100323.38
2023-04-16T14:22:44.309Z,100328.44
2023-04-16T14:27:44.453Z,100342.72
2023-04-16T14:32:43.541Z,100338.47
2023-04-16T14:37:42.645Z,100332.97
2023-04-16T14:42:41.535Z,100331.53
2023-04-16T14:47:46.135Z,100331.97
2023-04-16T14:52:45.154Z,100342.84
2023-04-16T14:57:44.175Z,100352.78
2023-04-16T15:02:44.602Z,100356.34
2023-04-16T15:07:43.689Z,100351.94
2023-04-16T15:12:42.518Z,100360.19
2023-04-16T15:17:41.643Z,100365.50
2023-04-16T15:22:41.856Z,100374.03
2023-04-16T15:27:40.724Z,100387.81
2023-04-16T15:32:39.779Z,100378.19
2023-04-16T15:37:39.006Z,100380.78
2023-04-16T15:42:40.124Z,100382.47
2023-04-16T15:47:41.526Z,100384.13
2023-04-16T15:52:40.993Z,100385.28
2023-04-16T15:57:41.314Z,100384.94
2023-04-16T16:02:40.753Z,100384.94
2023-04-16T16:07:39.819Z,100385.34
2023-04-16T16:12:38.661Z,100394.00
2023-04-16T16:17:38.928Z,100397.72
2023-04-16T16:22:38.246Z,100408.25
2023-04-16T16:27:37.423Z,100409.84
2023-04-16T16:32:36.740Z,100404.38
2023-04-16T16:37:37.080Z,100424.19
2023-04-16T16:42:36.359Z,100435.19
2023-04-16T16:47:35.196Z,100436.25
2023-04-16T16:52:34.312Z,100433.84
2023-04-16T16:57:34.584Z,100423.91
2023-04-16T17:02:33.474Z,100441.25
2023-04-16T17:07:32.998Z,100446.19
2023-04-16T17:12:31.977Z,100445.13
2023-04-16T17:17:33.119Z,100444.16
2023-04-16T17:22:31.997Z,100454.69
2023-04-16T17:27:33.855Z,100456.81
2023-04-16T17:32:34.432Z,100461.44
2023-04-16T17:37:33.888Z,100454.31
2023-04-16T17:42:32.841Z,100452.50
2023-04-16T17:47:35.400Z,100460.94
2023-04-16T17:52:37.292Z,100463.59
2023-04-16T17:57:36.732Z,100471.69
2023-04-16T18:02:40.816Z,100471.69
2023-04-16T18:07:40.473Z,100480.84
2023-04-16T18:12:39.250Z,100481.25
2023-04-16T18:17:39.699Z,100484.47
2023-04-16T18:22:38.695Z,100490.13
2023-04-16T18:27:41.285Z,100495.19
2023-04-16T18:32:58.917Z,100507.97
2023-04-16T18:38:00.277Z,100504.97
2023-04-16T18:42:59.205Z,100509.09
2023-04-16T18:47:59.874Z,100515.97
2023-04-16T18:52:58.867Z,100515.22
2023-04-16T18:57:57.858Z,100509.56
2023-04-16T19:02:56.649Z,100514.28
2023-04-16T19:07:56.999Z,100505.81
2023-04-16T19:12:57.229Z,100512.06
2023-04-16T19:17:56.187Z,100511.09
2023-04-16T19:22:56.646Z,100502.16
2023-04-16T19:27:56.044Z,100496.84
2023-04-16T19:32:55.663Z,100501.97
2023-04-16T19:37:56.609Z,100504.69
2023-04-16T19:42:55.648Z,100512.56
2023-04-16T19:47:55.012Z,100506.69
2023-04-16T19:52:53.831Z,100500.94
2023-04-16T19:57:54.086Z,100500.53
2023-04-16T20:02:53.192Z,100499.31
2023-04-16T20:07:52.778Z,100499.84
2023-04-16T20:12:53.255Z,100498.81
2023-04-16T20:17:52.460Z,100505.19
2023-04-16T20:22:51.437Z,100509.03
2023-04-16T20:27:50.326Z,100514.75
2023-04-16T20:32:50.822Z,100516.94
2023-04-16T20:37:49.847Z,100505.00
2023-04-16T20:42:51.142Z,100516.31
2023-04-16T20:47:51.930Z,100516.84
2023-04-16T20:52:51.256Z,100522.66
2023-04-16T20:57:50.009Z,100519.47
2023-04-16T21:02:48.897Z,100520.78
2023-04-16T21:07:49.185Z,100521.13
2023-04-16T21:12:48.095Z,100529.38
2023-04-16T21:17:47.046Z,100528.53
2023-04-16T21:22:45.881Z,100525.16
2023-04-16T21:27:46.222Z,100530.78
2023-04-16T21:32:45.842Z,100514.25
2023-04-16T21:37:44.670Z,100517.31
2023-04-16T21:42:44.500Z,100519.22
2023-04-16T21:47:44.867Z,100518.44
2023-04-16T21:52:46.909Z,100521.22
2023-04-16T21:57:45.738Z,100509.84
2023-04-16T22:02:46.188Z,100514.16
2023-04-16T22:07:45.200Z,100523.00
2023-04-16T22:12:44.929Z,100522.91
2023-04-16T22:17:45.666Z,100527.59
2023-04-16T22:22:45.099Z,100527.81
2023-04-16T22:27:44.002Z,100533.09
2023-04-16T22:32:42.824Z,100530.84
2023-04-16T22:37:43.223Z,100517.13
2023-04-16T22:42:42.372Z,100514.03
2023-04-16T22:47:41.737Z,100517.25
2023-04-16T22:52:42.067Z,100516.47
2023-04-16T22:57:41.116Z,100504.28
2023-04-16T23:02:40.066Z,100507.13
2023-04-16T23:07:39.150Z,100498.28
2023-04-16T23:12:39.326Z,100498.75
2023-04-16T23:17:38.128Z,100501.13
2023-04-16T23:22:37.107Z,100494.91
2023-04-16T23:27:35.914Z,100499.25
2023-04-16T23:32:36.328Z,100501.69
2023-04-16T23:37:35.107Z,100507.16
2023-04-16T23:42:33.955Z,100508.13
2023-04-16T23:47:32.912Z,100506.91
2023-04-16T23:52:33.310Z,100498.13
2023-04-16T23:57:32.106Z,100503.25
